createdAt,value
2018-11-11T00:01:43.410Z,63.20
2018-11-11T00:04:12.396Z,65.10
2018-11-11T00:06:41.243Z,65.20
2018-11-11T00:09:10.414Z,64.90
2018-11-11T00:11:39.371Z,65.20
2018-11-11T00:14:08.230Z,64.60
2018-11-11T00:16:37.080Z,63.80
2018-11-11T00:19:06.432Z,63.40
2018-11-11T00:21:35.277Z,64.20
2018-11-11T00:24:04.118Z,63.70
2018-11-11T00:26:32.972Z,63.30
2018-11-11T00:29:01.819Z,62.80
2018-11-11T00:31:30.678Z,62.20
2018-11-11T00:34:00.390Z,61.70
2018-11-11T00:36:29.206Z,61.60
2018-11-11T00:38:58.047Z,61.30
2018-11-11T00:41:26.888Z,60.60
2018-11-11T00:43:55.747Z,61.30
2018-11-11T00:46:24.576Z,61.80
2018-11-11T00:48:53.454Z,62.70
2018-11-11T00:51:22.323Z,63.30
2018-11-11T00:53:51.157Z,62.60
2018-11-11T00:56:19.998Z,62.80
2018-11-11T00:58:48.891Z,62.80
2018-11-11T01:01:17.787Z,63.00
2018-11-11T01:03:46.646Z,63.90
2018-11-11T01:06:15.699Z,63.50
2018-11-11T01:08:44.699Z,62.90
2018-11-11T01:11:13.547Z,62.60
2018-11-11T01:13:42.395Z,62.10
2018-11-11T01:16:11.246Z,61.80
2018-11-11T01:18:40.082Z,61.10
2018-11-11T01:21:08.969Z,60.50
2018-11-11T01:23:37.803Z,60.30
2018-11-11T01:26:06.711Z,60.50
2018-11-11T01:28:35.578Z,60.50
2018-11-11T01:31:05.483Z,60.40
2018-11-11T01:33:34.381Z,59.80
2018-11-11T01:36:03.622Z,59.60
2018-11-11T01:38:32.475Z,59.40
2018-11-11T01:41:01.323Z,59.40
2018-11-11T01:43:30.194Z,58.90
2018-11-11T01:45:59.073Z,58.50
2018-11-11T01:48:27.924Z,57.80
2018-11-11T01:50:56.842Z,58.50
2018-11-11T01:53:25.714Z,57.80
2018-11-11T01:55:54.566Z,57.50
2018-11-11T01:58:23.414Z,58.80
2018-11-11T02:00:52.271Z,58.80
2018-11-11T02:03:21.101Z,58.20
2018-11-11T02:05:49.978Z,58.30
2018-11-11T02:08:18.870Z,58.30
2018-11-11T02:10:47.731Z,58.30
2018-11-11T02:13:16.603Z,59.60
2018-11-11T02:15:45.464Z,58.80
2018-11-11T02:18:14.409Z,58.80
2018-11-11T02:20:43.248Z,59.00
2018-11-11T02:23:12.128Z,58.70
2018-11-11T02:25:40.974Z,59.10
2018-11-11T02:28:09.842Z,58.90
2018-11-11T02:30:38.730Z,59.00
2018-11-11T02:33:08.583Z,59.80
2018-11-11T02:35:37.453Z,59.60
2018-11-11T02:38:06.375Z,59.40
2018-11-11T02:40:35.247Z,59.20
2018-11-11T02:43:04.130Z,59.20
2018-11-11T02:45:33.022Z,60.70
2018-11-11T02:48:01.890Z,61.40
2018-11-11T02:50:30.750Z,61.10
2018-11-11T02:52:59.629Z,60.80
2018-11-11T02:55:28.475Z,60.20
2018-11-11T02:57:57.370Z,60.80
2018-11-11T03:00:26.202Z,62.20
2018-11-11T03:02:55.146Z,62.90
2018-11-11T03:05:24.047Z,62.30
2018-11-11T03:07:52.930Z,61.70
2018-11-11T03:10:21.830Z,61.20
2018-11-11T03:12:51.353Z,60.60
2018-11-11T03:15:20.527Z,60.00
2018-11-11T03:17:49.338Z,59.70
2018-11-11T03:20:18.619Z,59.50
2018-11-11T03:22:47.508Z,59.10
2018-11-11T03:25:17.138Z,59.00
2018-11-11T03:27:46.048Z,60.10
2018-11-11T03:30:16.249Z,58.60
2018-11-11T03:32:45.117Z,58.20
2018-11-11T03:35:14.618Z,58.10
2018-11-11T03:37:44.230Z,57.90
2018-11-11T03:40:15.290Z,59.50
2018-11-11T03:42:44.296Z,58.40
2018-11-11T03:45:14.478Z,59.50
2018-11-11T03:47:44.188Z,60.60
2018-11-11T03:50:13.088Z,60.50
2018-11-11T03:52:42.182Z,60.60
2018-11-11T03:55:11.298Z,60.10
2018-11-11T03:57:40.156Z,59.70
2018-11-11T04:00:13.660Z,59.10
2018-11-11T04:02:42.519Z,58.60
2018-11-11T04:05:12.686Z,58.00
2018-11-11T04:07:41.662Z,57.80
2018-11-11T04:10:14.118Z,57.50
2018-11-11T04:13:46.418Z,58.10
2018-11-11T04:16:15.304Z,57.50
2018-11-11T04:18:44.234Z,59.10
2018-11-11T04:21:13.150Z,59.60
2018-11-11T04:23:42.013Z,60.90
2018-11-11T04:26:10.843Z,61.40
2018-11-11T04:28:39.721Z,62.30
2018-11-11T04:31:08.583Z,62.20
2018-11-11T04:33:37.439Z,62.50
2018-11-11T04:36:06.323Z,64.40
2018-11-11T04:38:35.166Z,66.10
2018-11-11T04:42:07.294Z,67.00
2018-11-11T04:44:36.173Z,65.10
2018-11-11T04:47:05.063Z,64.50
2018-11-11T04:49:33.954Z,64.50
2018-11-11T04:52:02.918Z,64.50
2018-11-11T04:54:31.854Z,65.60
2018-11-11T04:57:00.757Z,64.50
2018-11-11T04:59:29.650Z,64.60
2018-11-11T05:01:58.515Z,64.20
2018-11-11T05:04:27.444Z,62.80
2018-11-11T05:06:56.299Z,61.90
2018-11-11T05:09:25.154Z,61.10
2018-11-11T05:11:54.043Z,60.10
2018-11-11T05:14:22.935Z,60.10
2018-11-11T05:16:51.802Z,57.10
2018-11-11T05:19:20.649Z,56.40
2018-11-11T05:21:49.556Z,56.60
2018-11-11T05:24:18.398Z,56.40
2018-11-11T05:26:47.290Z,57.30
2018-11-11T05:29:16.184Z,57.60
2018-11-11T05:31:45.197Z,58.20
2018-11-11T05:34:14.196Z,59.70
2018-11-11T05:36:43.058Z,60.60
2018-11-11T05:39:13.207Z,61.90
2018-11-11T05:41:42.290Z,60.40
2018-11-11T05:44:11.287Z,60.80
2018-11-11T05:46:40.186Z,61.30
2018-11-11T05:49:09.079Z,61.60
2018-11-11T05:51:37.927Z,62.10
2018-11-11T05:54:06.759Z,61.20
2018-11-11T05:56:35.615Z,60.20
2018-11-11T05:59:04.731Z,60.60
2018-11-11T06:01:33.546Z,59.80
2018-11-11T06:04:02.411Z,59.50
2018-11-11T06:06:31.326Z,58.40
2018-11-11T06:09:00.214Z,60.00
2018-11-11T06:11:29.106Z,59.30
2018-11-11T06:13:57.979Z,58.60
2018-11-11T06:16:26.825Z,57.80
2018-11-11T06:18:55.674Z,57.90
2018-11-11T06:21:24.544Z,57.60
2018-11-11T06:23:53.410Z,58.30
2018-11-11T06:26:22.275Z,58.00
2018-11-11T06:28:51.113Z,57.20
2018-11-11T06:31:19.969Z,56.20
2018-11-11T06:33:48.924Z,54.90
2018-11-11T06:36:17.748Z,54.10
2018-11-11T06:38:46.594Z,52.70
2018-11-11T06:41:15.483Z,52.70
2018-11-11T06:43:44.322Z,52.70
2018-11-11T06:46:13.186Z,52.70
2018-11-11T06:48:42.059Z,51.80
2018-11-11T06:51:10.958Z,52.30
2018-11-11T06:53:39.819Z,52.60
2018-11-11T06:56:08.710Z,52.70
2018-11-11T06:58:37.625Z,52.90
2018-11-11T07:01:06.587Z,53.00
2018-11-11T07:03:54.851Z,52.00
2018-11-11T07:06:24.072Z,50.20
2018-11-11T07:08:52.915Z,51.10
2018-11-11T07:11:21.806Z,51.30
2018-11-11T07:13:50.766Z,51.20
2018-11-11T07:16:19.586Z,51.30
2018-11-11T07:18:48.748Z,50.30
2018-11-11T07:21:18.228Z,50.30
2018-11-11T07:23:48.069Z,49.20
2018-11-11T07:26:16.842Z,50.30
2018-11-11T07:28:45.788Z,50.40
2018-11-11T07:31:14.674Z,50.80
2018-11-11T07:33:43.542Z,50.80
2018-11-11T07:36:12.594Z,50.40
2018-11-11T07:38:41.318Z,50.20
2018-11-11T07:41:10.230Z,49.60
2018-11-11T07:43:39.350Z,51.40
2018-11-11T07:46:08.332Z,51.20
2018-11-11T07:48:37.311Z,52.20
2018-11-11T07:51:06.619Z,51.80
2018-11-11T07:53:35.474Z,51.90
2018-11-11T07:56:04.502Z,50.80
2018-11-11T07:58:34.054Z,50.00
2018-11-11T08:01:02.899Z,50.40
2018-11-11T08:03:31.783Z,51.30
2018-11-11T08:06:00.643Z,53.00
2018-11-11T08:08:29.463Z,50.80
2018-11-11T08:11:15.650Z,53.00
2018-11-11T08:13:44.518Z,54.70
2018-11-11T08:16:13.339Z,53.80
2018-11-11T08:18:42.246Z,55.00
2018-11-11T08:21:11.231Z,56.10
2018-11-11T08:23:40.215Z,57.50
2018-11-11T08:26:09.187Z,56.90
2018-11-11T08:28:38.106Z,55.70
2018-11-11T08:31:07.086Z,54.50
2018-11-11T08:33:36.058Z,56.60
2018-11-11T08:36:05.151Z,56.60
2018-11-11T08:38:34.277Z,56.50
2018-11-11T08:41:03.291Z,54.90
2018-11-11T08:43:32.282Z,53.00
2018-11-11T08:46:01.224Z,51.90
2018-11-11T08:48:30.147Z,51.90
2018-11-11T08:50:59.087Z,51.10
2018-11-11T08:53:28.023Z,49.90
2018-11-11T08:55:56.956Z,48.40
2018-11-11T08:58:25.877Z,50.00
2018-11-11T09:00:54.804Z,49.30
2018-11-11T09:03:23.803Z,49.20
2018-11-11T09:05:52.747Z,49.60
2018-11-11T09:08:21.639Z,50.10
2018-11-11T09:10:50.534Z,48.40
2018-11-11T09:13:19.454Z,49.10
2018-11-11T09:15:48.543Z,48.00
2018-11-11T09:18:17.566Z,48.70
2018-11-11T09:20:46.551Z,50.00
2018-11-11T09:23:15.466Z,49.30
2018-11-11T09:25:44.318Z,47.70
2018-11-11T09:28:13.253Z,48.90
2018-11-11T09:30:42.195Z,49.30
2018-11-11T09:33:11.171Z,49.10
2018-11-11T09:35:40.119Z,48.70
2018-11-11T09:38:09.002Z,48.00
2018-11-11T09:40:37.962Z,48.00
2018-11-11T09:43:07.160Z,47.10
2018-11-11T09:45:36.155Z,46.00
2018-11-11T09:48:05.300Z,51.30
2018-11-11T09:51:37.454Z,53.80
2018-11-11T09:54:07.055Z,54.40
2018-11-11T09:56:36.253Z,54.10
2018-11-11T09:59:05.428Z,53.00
2018-11-11T10:01:34.392Z,53.60
2018-11-11T10:04:10.406Z,53.90
2018-11-11T10:07:47.299Z,52.60
2018-11-11T10:10:20.870Z,54.00
2018-11-11T10:13:26.351Z,52.70
2018-11-11T10:16:00.471Z,53.10
2018-11-11T10:18:36.415Z,52.60
2018-11-11T10:21:24.413Z,52.60
2018-11-11T10:24:11.823Z,54.10
2018-11-11T10:26:46.054Z,52.70
2018-11-11T10:29:19.582Z,52.70
2018-11-11T10:31:53.726Z,54.30
2018-11-11T10:34:30.776Z,50.80
2018-11-11T10:37:05.624Z,49.80
2018-11-11T10:39:53.338Z,48.90
2018-11-11T10:44:32.745Z,47.70
2018-11-11T10:47:03.641Z,47.40
2018-11-11T10:49:38.740Z,49.50
2018-11-11T10:52:07.648Z,51.20
2018-11-11T10:54:36.598Z,52.90
2018-11-11T10:57:05.507Z,52.60
2018-11-11T10:59:34.444Z,52.90
2018-11-11T11:02:08.716Z,52.70
2018-11-11T11:04:43.226Z,52.10
2018-11-11T11:07:12.184Z,52.40
2018-11-11T11:09:41.023Z,52.20
2018-11-11T11:12:09.938Z,52.80
2018-11-11T11:14:38.812Z,52.20
2018-11-11T11:17:07.770Z,51.00
2018-11-11T11:19:36.727Z,52.80
2018-11-11T11:22:06.239Z,52.70
2018-11-11T11:24:35.144Z,54.70
2018-11-11T11:27:04.213Z,54.40
2018-11-11T11:29:33.067Z,52.80
2018-11-11T11:32:01.994Z,52.90
2018-11-11T11:34:30.868Z,53.00
2018-11-11T11:36:59.768Z,52.90
2018-11-11T11:39:28.650Z,53.00
2018-11-11T11:41:57.560Z,53.10
2018-11-11T11:44:26.473Z,52.50
2018-11-11T11:46:55.582Z,53.00
2018-11-11T11:49:24.570Z,53.10
2018-11-11T11:51:53.551Z,53.00
2018-11-11T11:54:22.383Z,53.10
2018-11-11T11:56:51.296Z,53.10
2018-11-11T11:59:20.174Z,53.90
2018-11-11T12:01:49.074Z,56.20
2018-11-11T12:04:17.943Z,55.60
2018-11-11T12:06:46.862Z,57.00
2018-11-11T12:09:15.802Z,57.80
2018-11-11T12:11:45.662Z,60.60
2018-11-11T12:14:14.550Z,62.30
2018-11-11T12:16:43.458Z,63.00
2018-11-11T12:19:12.331Z,63.20
2018-11-11T12:21:41.222Z,62.70
2018-11-11T12:24:10.094Z,63.70
2018-11-11T12:26:38.985Z,64.90
2018-11-11T12:29:07.890Z,65.90
2018-11-11T12:31:36.738Z,63.80
2018-11-11T12:34:06.194Z,64.10
2018-11-11T12:36:35.267Z,63.70
2018-11-11T12:39:06.107Z,62.00
2018-11-11T12:41:35.001Z,55.80
2018-11-11T12:44:03.926Z,54.70
2018-11-11T12:46:32.920Z,52.80
2018-11-11T12:49:01.911Z,50.60
2018-11-11T12:51:31.025Z,47.20
2018-11-11T12:53:59.993Z,44.40
2018-11-11T12:56:28.963Z,39.90
2018-11-11T12:58:58.178Z,38.70
2018-11-11T13:01:27.134Z,39.30
2018-11-11T13:03:56.122Z,41.80
2018-11-11T13:06:25.304Z,38.80
2018-11-11T13:08:54.193Z,41.70
2018-11-11T13:11:23.199Z,35.70
2018-11-11T13:14:55.461Z,31.30
2018-11-11T13:17:24.371Z,23.50
2018-11-11T13:19:53.327Z,19.70
2018-11-11T13:22:22.401Z,12.40
2018-11-11T13:24:51.294Z,10.90
2018-11-11T13:27:20.237Z,9.60
2018-11-11T13:29:49.129Z,8.40
2018-11-11T13:32:18.026Z,8.00
2018-11-11T13:34:46.911Z,6.70
2018-11-11T13:37:15.823Z,6.70
2018-11-11T13:39:44.789Z,6.20
2018-11-11T13:42:13.667Z,6.80
2018-11-11T13:44:42.597Z,7.50
2018-11-11T13:47:11.567Z,7.50
2018-11-11T13:49:40.455Z,6.90
2018-11-11T13:52:09.314Z,7.50
2018-11-11T13:54:38.306Z,9.30
2018-11-11T13:57:08.301Z,9.30
2018-11-11T13:59:37.260Z,9.10
2018-11-11T14:02:06.468Z,9.00
2018-11-11T14:04:35.535Z,8.20
2018-11-11T14:07:04.442Z,9.40
2018-11-11T14:09:33.427Z,9.10
2018-11-11T14:12:02.319Z,9.00
2018-11-11T14:14:31.313Z,9.90
2018-11-11T14:17:00.355Z,9.70
2018-11-11T14:19:29.328Z,9.90
2018-11-11T14:21:58.139Z,10.60
2018-11-11T14:24:27.052Z,10.60
2018-11-11T14:26:56.053Z,10.10
2018-11-11T14:29:24.964Z,10.40
2018-11-11T14:31:53.908Z,11.30
2018-11-11T14:34:22.869Z,11.30
2018-11-11T14:36:51.830Z,12.30
2018-11-11T14:39:20.835Z,13.00
2018-11-11T14:41:49.795Z,13.70
2018-11-11T14:44:18.684Z,14.00
2018-11-11T14:46:47.529Z,14.10
2018-11-11T14:49:16.498Z,14.40
2018-11-11T14:51:45.495Z,15.40
2018-11-11T14:54:14.443Z,18.00
2018-11-11T14:56:43.348Z,20.40
2018-11-11T14:59:12.242Z,36.00
2018-11-11T15:01:41.184Z,42.00
2018-11-11T15:04:10.014Z,52.20
2018-11-11T15:06:38.857Z,61.70
2018-11-11T15:09:10.715Z,60.30
2018-11-11T15:11:40.110Z,62.20
2018-11-11T15:14:09.215Z,63.90
2018-11-11T15:16:38.251Z,67.50
2018-11-11T15:19:07.246Z,64.40
2018-11-11T15:21:36.134Z,61.60
2018-11-11T15:24:05.536Z,61.00
2018-11-11T15:26:34.398Z,61.00
2018-11-11T15:29:03.318Z,61.10
2018-11-11T15:31:32.214Z,61.30
2018-11-11T15:34:01.088Z,61.40
2018-11-11T15:36:30.015Z,60.50
2018-11-11T15:38:58.954Z,59.80
2018-11-11T15:41:27.902Z,59.60
2018-11-11T15:43:56.871Z,59.00
2018-11-11T15:46:25.836Z,59.10
2018-11-11T15:48:54.775Z,58.00
2018-11-11T15:51:23.686Z,59.00
2018-11-11T15:53:52.638Z,60.50
2018-11-11T15:56:21.593Z,63.40
2018-11-11T15:58:50.488Z,61.10
2018-11-11T16:01:19.395Z,62.00
2018-11-11T16:03:48.298Z,62.90
2018-11-11T16:06:17.293Z,63.70
2018-11-11T16:08:46.307Z,65.00
2018-11-11T16:11:15.346Z,64.00
2018-11-11T16:13:44.247Z,63.10
2018-11-11T16:16:13.108Z,63.30
2018-11-11T16:18:42.149Z,65.10
2018-11-11T16:21:11.012Z,65.60
2018-11-11T16:23:39.991Z,65.60
2018-11-11T16:26:08.893Z,65.60
2018-11-11T16:28:37.842Z,66.00
2018-11-11T16:31:06.819Z,66.60
2018-11-11T16:33:35.779Z,67.30
2018-11-11T16:36:04.971Z,68.30
2018-11-11T16:38:33.859Z,65.50
2018-11-11T16:41:02.792Z,65.50
2018-11-11T16:43:31.670Z,65.50
2018-11-11T16:46:00.642Z,66.70
2018-11-11T16:48:29.499Z,65.40
2018-11-11T16:50:58.391Z,65.50
2018-11-11T16:53:27.384Z,65.40
2018-11-11T16:55:56.283Z,65.40
2018-11-11T16:58:25.182Z,66.80
2018-11-11T17:00:54.124Z,67.50
2018-11-11T17:03:23.050Z,66.20
2018-11-11T17:05:51.986Z,67.70
2018-11-11T17:08:20.931Z,67.60
2018-11-11T17:10:50.012Z,67.20
2018-11-11T17:13:18.938Z,67.80
2018-11-11T17:15:47.864Z,68.20
